createdAt,value
2018-07-09T00:00:14.567Z,10.28
2018-07-09T00:02:42.767Z,10.70
2018-07-09T00:05:10.943Z,10.03
2018-07-09T00:07:39.570Z,12.95
2018-07-09T00:10:08.055Z,10.50
2018-07-09T00:12:36.360Z,10.80
2018-07-09T00:15:09.567Z,10.80
2018-07-09T00:17:38.172Z,10.80
2018-07-09T00:20:06.549Z,12.85
2018-07-09T00:22:34.944Z,10.93
2018-07-09T00:25:03.241Z,11.20
2018-07-09T00:27:32.065Z,10.60
2018-07-09T00:30:00.682Z,11.30
2018-07-09T00:32:28.986Z,10.78
2018-07-09T00:34:57.484Z,11.80
2018-07-09T00:37:25.768Z,11.18
2018-07-09T00:39:53.974Z,12.30
2018-07-09T00:42:22.167Z,11.53
2018-07-09T00:44:51.268Z,10.95
2018-07-09T00:47:20.085Z,10.70
2018-07-09T00:49:49.002Z,10.55
2018-07-09T00:52:23.033Z,11.85
2018-07-09T00:54:51.543Z,11.63
2018-07-09T00:57:20.237Z,12.07
2018-07-09T01:03:03.777Z,11.22
2018-07-09T01:05:32.151Z,11.55
2018-07-09T01:08:00.771Z,12.63
2018-07-09T01:10:28.633Z,11.10
2018-07-09T01:13:21.101Z,11.40
2018-07-09T01:15:49.297Z,12.00
2018-07-09T01:18:18.223Z,10.85
2018-07-09T01:20:46.709Z,11.93
2018-07-09T01:29:08.151Z,10.80
2018-07-09T01:31:36.574Z,11.90
2018-07-09T01:34:04.954Z,11.25
2018-07-09T01:36:33.829Z,13.28
2018-07-09T01:39:02.763Z,11.80
2018-07-09T01:41:31.162Z,11.70
2018-07-09T01:43:59.688Z,12.73
2018-07-09T01:46:28.174Z,10.95
2018-07-09T01:48:56.552Z,12.37
2018-07-09T01:51:25.073Z,12.10
2018-07-09T01:53:53.485Z,10.60
2018-07-09T01:56:21.879Z,10.63
2018-07-09T01:58:50.161Z,10.53
2018-07-09T02:01:18.467Z,13.20
2018-07-09T02:03:46.676Z,10.98
2018-07-09T02:06:14.755Z,11.37
2018-07-09T02:09:01.275Z,11.03
2018-07-09T02:11:29.443Z,13.22
2018-07-09T02:13:57.619Z,11.93
2018-07-09T02:16:26.165Z,10.50
2018-07-09T02:19:07.761Z,10.43
2018-07-09T02:21:36.057Z,11.12
2018-07-09T02:24:04.436Z,10.60
2018-07-09T02:26:32.650Z,10.30
2018-07-09T02:37:52.346Z,10.35
2018-07-09T02:40:20.783Z,11.30
2018-07-09T02:42:49.920Z,10.80
2018-07-09T02:45:18.360Z,10.48
2018-07-09T02:47:52.271Z,10.05
2018-07-09T02:50:21.112Z,10.45
2018-07-09T02:52:49.510Z,10.10
2018-07-09T02:55:17.886Z,10.38
2018-07-09T02:57:46.430Z,10.43
2018-07-09T03:00:15.556Z,11.33
2018-07-09T03:02:44.540Z,9.60
2018-07-09T03:05:12.939Z,8.70
2018-07-09T03:07:49.320Z,10.43
2018-07-09T03:10:17.513Z,9.95
2018-07-09T03:12:45.917Z,9.95
2018-07-09T03:15:14.201Z,9.78
2018-07-09T03:23:34.187Z,9.63
2018-07-09T03:26:02.443Z,9.38
2018-07-09T03:28:30.824Z,9.27
2018-07-09T03:31:02.682Z,10.00
2018-07-09T03:33:30.895Z,11.12
2018-07-09T03:35:59.069Z,9.20
2018-07-09T03:38:27.354Z,9.70
2018-07-09T03:41:04.582Z,9.25
2018-07-09T03:43:32.778Z,12.95
2018-07-09T03:46:01.156Z,10.70
2018-07-09T03:48:29.556Z,10.45
2018-07-09T03:50:57.876Z,9.25
2018-07-09T03:53:26.964Z,9.90
2018-07-09T03:55:55.476Z,9.20
2018-07-09T03:58:35.241Z,9.83
2018-07-09T04:01:03.642Z,10.13
2018-07-09T04:03:32.885Z,11.12
2018-07-09T04:06:01.333Z,9.50
2018-07-09T04:08:39.381Z,9.40
2018-07-09T04:11:07.765Z,8.80
2018-07-09T04:13:36.053Z,8.90
2018-07-09T04:16:03.852Z,9.40
2018-07-09T04:21:25.384Z,9.68
2018-07-09T04:23:53.810Z,8.13
2018-07-09T04:26:22.389Z,9.03
2018-07-09T04:28:50.586Z,8.05
2018-07-09T04:31:28.500Z,9.48
2018-07-09T04:33:56.814Z,7.40
2018-07-09T04:36:25.184Z,10.95
2018-07-09T04:38:53.609Z,9.18
2018-07-09T04:41:31.732Z,9.63
2018-07-09T04:43:59.822Z,9.40
2018-07-09T04:46:28.388Z,8.50
2018-07-09T04:54:55.376Z,8.78
2018-07-09T04:57:23.573Z,8.05
2018-07-09T04:59:51.898Z,7.72
2018-07-09T05:02:20.386Z,8.35
2018-07-09T05:05:03.524Z,8.83
2018-07-09T05:07:31.827Z,8.20
2018-07-09T05:10:00.325Z,7.90
2018-07-09T05:12:28.694Z,7.50
2018-07-09T05:20:44.735Z,7.70
2018-07-09T05:23:13.017Z,7.40
2018-07-09T05:25:41.324Z,7.15
2018-07-09T05:28:09.557Z,8.40
2018-07-09T05:30:38.215Z,7.10
2018-07-09T05:33:25.254Z,7.10
2018-07-09T05:35:53.354Z,6.20
2018-07-09T05:38:21.858Z,6.60
2018-07-09T05:40:50.350Z,6.58
2018-07-09T05:43:18.551Z,6.92
2018-07-09T05:45:52.676Z,6.30
2018-07-09T05:48:21.144Z,5.62
2018-07-09T05:50:49.764Z,5.60
2018-07-09T05:53:18.132Z,6.47
2018-07-09T05:56:00.784Z,5.25
2018-07-09T05:58:29.404Z,5.40
2018-07-09T06:00:57.905Z,6.65
2018-07-09T06:03:32.467Z,5.10
2018-07-09T06:06:00.774Z,5.47
2018-07-09T06:08:29.137Z,5.10
2018-07-09T06:10:57.625Z,4.75
2018-07-09T06:13:39.435Z,5.12
2018-07-09T06:16:07.813Z,5.00
2018-07-09T06:18:36.346Z,6.08
2018-07-09T06:21:05.207Z,5.13
2018-07-09T06:23:49.496Z,5.00
2018-07-09T06:26:17.680Z,5.08
2018-07-09T06:28:46.200Z,5.08
2018-07-09T06:31:14.700Z,5.30
2018-07-09T06:33:49.852Z,7.22
2018-07-09T06:36:18.251Z,4.90
2018-07-09T06:38:46.758Z,5.35
2018-07-09T06:41:15.166Z,6.08
2018-07-09T06:43:47.130Z,6.10
2018-07-09T06:46:15.627Z,5.12
2018-07-09T06:48:43.373Z,5.00
2018-07-09T06:51:11.691Z,4.40
2018-07-09T06:53:39.663Z,5.90
2018-07-09T06:56:08.476Z,5.60
2018-07-09T06:58:36.908Z,6.62
2018-07-09T07:01:05.292Z,4.75
2018-07-09T07:03:33.523Z,4.53
2018-07-09T07:06:01.804Z,5.58
2018-07-09T07:08:30.401Z,5.83
2018-07-09T07:10:58.400Z,5.03
2018-07-09T07:13:26.911Z,4.92
2018-07-09T07:15:55.455Z,4.78
2018-07-09T07:18:23.952Z,6.87
2018-07-09T07:20:52.538Z,5.62
2018-07-09T07:23:20.903Z,4.85
2018-07-09T07:25:48.997Z,4.80
2018-07-09T07:28:17.204Z,4.78
2018-07-09T07:30:46.320Z,4.70
2018-07-09T07:33:14.888Z,5.47
2018-07-09T07:35:43.119Z,5.50
2018-07-09T07:38:11.500Z,5.30
2018-07-09T07:40:39.790Z,5.05
2018-07-09T07:43:08.255Z,4.90
2018-07-09T07:45:36.724Z,6.10
2018-07-09T07:48:05.912Z,5.00
2018-07-09T07:50:34.167Z,4.75
2018-07-09T07:53:02.526Z,4.80
2018-07-09T07:55:30.826Z,5.08
2018-07-09T07:57:58.891Z,5.00
2018-07-09T08:00:27.413Z,5.80
2018-07-09T08:02:55.643Z,6.10
2018-07-09T08:05:23.994Z,5.13
2018-07-09T08:07:52.105Z,4.83
2018-07-09T08:10:20.714Z,6.20
2018-07-09T08:13:27.980Z,6.00
2018-07-09T08:15:17.794Z,5.28
2018-07-09T08:17:46.343Z,5.03
2018-07-09T08:20:14.712Z,4.83
2018-07-09T08:22:42.906Z,4.67
2018-07-09T08:25:11.273Z,8.68
2018-07-09T08:27:40.123Z,4.90
2018-07-09T08:30:08.497Z,6.37
2018-07-09T08:32:36.801Z,5.90
2018-07-09T08:35:05.823Z,4.90
2018-07-09T08:37:33.913Z,4.60
2018-07-09T08:40:02.159Z,4.83
2018-07-09T08:42:30.699Z,5.25
2018-07-09T08:44:59.008Z,5.22
2018-07-09T08:47:27.529Z,4.85
2018-07-09T08:49:55.927Z,5.00
2018-07-09T08:52:24.211Z,5.92
2018-07-09T08:54:52.212Z,5.28
2018-07-09T08:57:20.612Z,6.58
2018-07-09T08:59:48.985Z,5.70
2018-07-09T09:02:17.098Z,6.03
2018-07-09T09:04:45.558Z,6.90
2018-07-09T09:07:13.778Z,5.73
2018-07-09T09:09:44.150Z,7.22
2018-07-09T09:12:12.548Z,6.50
2018-07-09T09:14:41.050Z,6.37
2018-07-09T09:17:09.572Z,5.22
2018-07-09T09:19:37.835Z,5.60
2018-07-09T09:22:06.225Z,5.22
2018-07-09T09:24:34.736Z,4.62
2018-07-09T09:27:03.248Z,4.47
2018-07-09T09:29:31.339Z,5.45
2018-07-09T09:31:59.808Z,9.50
2018-07-09T09:34:28.243Z,5.33
2018-07-09T09:36:56.525Z,5.90
2018-07-09T09:39:24.633Z,4.95
2018-07-09T09:41:53.471Z,6.53
2018-07-09T09:44:21.617Z,4.97
2018-07-09T09:46:49.831Z,5.03
2018-07-09T09:49:17.924Z,3.95
2018-07-09T09:51:46.199Z,4.58
2018-07-09T09:54:14.729Z,5.10
2018-07-09T09:56:43.099Z,4.65
2018-07-09T09:59:11.510Z,4.05
2018-07-09T10:01:39.818Z,4.10
2018-07-09T10:04:08.872Z,4.37
2018-07-09T10:06:37.432Z,5.77
2018-07-09T10:09:06.512Z,4.28
2018-07-09T10:11:35.050Z,3.98
2018-07-09T10:14:03.646Z,4.00
2018-07-09T10:16:32.673Z,5.10
2018-07-09T10:19:00.734Z,4.60
2018-07-09T10:21:29.064Z,4.87
2018-07-09T10:23:57.689Z,5.65
2018-07-09T10:26:26.163Z,5.08
2018-07-09T10:28:54.260Z,6.35
2018-07-09T10:31:22.871Z,4.10
2018-07-09T10:33:51.270Z,3.90
2018-07-09T10:36:19.428Z,4.53
2018-07-09T10:38:47.854Z,4.27
2018-07-09T10:41:15.929Z,3.90
2018-07-09T10:43:44.324Z,5.12
2018-07-09T10:46:12.971Z,4.10
2018-07-09T10:48:41.565Z,3.60
2018-07-09T10:51:09.843Z,6.67
2018-07-09T10:53:37.926Z,3.33
2018-07-09T10:56:06.556Z,4.40
2018-07-09T10:58:34.767Z,4.85
2018-07-09T11:01:03.281Z,4.40
2018-07-09T11:03:31.922Z,4.42
2018-07-09T11:06:00.774Z,4.43
2018-07-09T11:08:29.474Z,4.50
2018-07-09T11:10:58.002Z,6.65
2018-07-09T11:13:27.398Z,4.10
2018-07-09T11:15:56.002Z,6.43
2018-07-09T11:18:24.528Z,3.58
2018-07-09T11:20:52.918Z,4.70
2018-07-09T11:23:21.597Z,4.50
2018-07-09T11:25:49.815Z,5.25
2018-07-09T11:28:18.307Z,4.70
2018-07-09T11:30:46.709Z,4.15
2018-07-09T11:33:15.097Z,3.90
2018-07-09T11:35:43.083Z,4.10
2018-07-09T11:38:11.077Z,4.50
2018-07-09T11:40:39.594Z,4.30
2018-07-09T11:43:08.064Z,4.65
2018-07-09T11:45:36.063Z,6.00
2018-07-09T11:48:04.280Z,3.77
2018-07-09T11:50:32.656Z,8.30
2018-07-09T11:53:01.112Z,5.75
2018-07-09T11:55:30.089Z,4.67
2018-07-09T11:57:58.700Z,7.05
2018-07-09T12:00:27.198Z,6.47
2018-07-09T12:02:55.566Z,5.42
2018-07-09T12:05:23.898Z,4.30
2018-07-09T12:07:52.202Z,4.67
2018-07-09T12:10:20.588Z,4.95
2018-07-09T12:12:49.102Z,14.50
2018-07-09T12:15:17.674Z,5.55
2018-07-09T12:17:45.974Z,6.93
2018-07-09T12:20:14.291Z,6.08
2018-07-09T12:22:42.789Z,3.97
2018-07-09T12:25:10.885Z,4.08
2018-07-09T12:27:39.610Z,5.40
2018-07-09T12:30:08.228Z,5.70
2018-07-09T12:32:36.712Z,3.92
2018-07-09T12:35:04.935Z,3.33
2018-07-09T12:37:33.510Z,4.85
2018-07-09T12:40:02.113Z,5.05
2018-07-09T12:42:30.611Z,12.00
2018-07-09T12:44:58.788Z,4.20
2018-07-09T12:47:26.807Z,5.83
2018-07-09T12:49:55.587Z,4.70
2018-07-09T12:52:23.676Z,4.23
2018-07-09T12:54:52.398Z,3.92
2018-07-09T12:57:20.758Z,3.60
2018-07-09T12:59:50.630Z,7.42
2018-07-09T13:02:18.840Z,3.50
2018-07-09T13:04:47.345Z,4.00
2018-07-09T13:07:15.807Z,4.17
2018-07-09T13:09:44.244Z,3.42
2018-07-09T13:12:16.946Z,3.60
2018-07-09T13:14:45.633Z,5.35
2018-07-09T13:17:14.236Z,5.47
2018-07-09T13:19:43.488Z,4.40
2018-07-09T13:22:12.058Z,4.00
2018-07-09T13:24:40.698Z,4.67
2018-07-09T13:27:09.396Z,4.80
2018-07-09T13:29:38.018Z,5.15
2018-07-09T13:32:06.551Z,5.10
2018-07-09T13:34:35.054Z,3.92
2018-07-09T13:37:04.299Z,3.70
2018-07-09T13:39:32.950Z,5.47
2018-07-09T13:42:01.520Z,4.37
2018-07-09T13:44:30.085Z,5.97
2018-07-09T13:46:58.508Z,4.33
2018-07-09T13:49:26.799Z,4.17
2018-07-09T13:51:55.280Z,3.47
2018-07-09T13:54:23.840Z,4.85
2018-07-09T13:56:52.836Z,3.92
2018-07-09T13:59:21.427Z,4.17
2018-07-09T14:01:50.032Z,5.70
2018-07-09T14:04:19.083Z,3.80
2018-07-09T14:06:47.650Z,4.03
2018-07-09T14:09:16.241Z,6.10
2018-07-09T14:11:45.566Z,4.83
2018-07-09T14:14:13.768Z,5.70
2018-07-09T14:16:42.058Z,4.30
2018-07-09T14:19:15.885Z,4.20
2018-07-09T14:21:44.408Z,4.00
2018-07-09T14:24:12.995Z,5.15
2018-07-09T14:26:41.385Z,4.22
2018-07-09T14:29:09.504Z,4.10
2018-07-09T14:31:37.990Z,4.00
2018-07-09T14:34:06.495Z,4.50
2018-07-09T14:36:35.399Z,4.75
2018-07-09T14:39:04.509Z,4.87
2018-07-09T14:41:32.937Z,2.70
2018-07-09T14:44:01.519Z,6.37
2018-07-09T14:46:30.016Z,6.22
2018-07-09T14:48:58.216Z,3.30
2018-07-09T14:51:26.715Z,5.47
2018-07-09T14:53:55.006Z,2.87
2018-07-09T14:56:23.301Z,2.70
2018-07-09T14:58:51.702Z,2.45
2018-07-09T15:01:19.904Z,4.05
2018-07-09T15:03:48.326Z,3.40
2018-07-09T15:06:16.888Z,4.83
2018-07-09T15:08:45.272Z,2.37
2018-07-09T15:11:14.985Z,3.05
2018-07-09T15:13:43.128Z,3.27
2018-07-09T15:16:11.953Z,3.27
2018-07-09T15:18:40.641Z,3.92
2018-07-09T15:21:08.869Z,3.30
2018-07-09T15:23:37.160Z,3.27
2018-07-09T15:26:05.915Z,3.83
2018-07-09T15:28:34.969Z,3.58
2018-07-09T15:31:03.591Z,4.00
2018-07-09T15:33:32.072Z,3.98
2018-07-09T15:36:00.782Z,3.17
2018-07-09T15:38:30.020Z,3.80
2018-07-09T15:40:58.372Z,2.95
2018-07-09T15:44:02.998Z,4.33
2018-07-09T15:46:31.563Z,4.42
2018-07-09T15:49:00.169Z,3.47
2018-07-09T15:51:29.529Z,3.60
2018-07-09T15:53:57.924Z,2.62
2018-07-09T15:56:26.880Z,6.67
2018-07-09T15:58:56.438Z,4.22
2018-07-09T16:01:24.979Z,2.80
2018-07-09T16:03:53.558Z,3.20
2018-07-09T16:06:22.312Z,3.17
2018-07-09T16:08:50.678Z,4.30
2018-07-09T16:11:19.383Z,3.87
2018-07-09T16:13:48.837Z,2.08
2018-07-09T16:16:17.513Z,2.77
2018-07-09T16:18:46.114Z,3.07
2018-07-09T16:21:14.559Z,4.60
2018-07-09T16:23:42.730Z,3.30
2018-07-09T16:26:11.151Z,2.77
2018-07-09T16:28:40.371Z,4.55
2018-07-09T16:31:08.835Z,2.67
2018-07-09T16:33:37.538Z,4.17
2018-07-09T16:36:05.966Z,2.40
2018-07-09T16:38:34.438Z,3.85
2018-07-09T16:41:03.138Z,2.30
2018-07-09T16:43:31.681Z,3.12
2018-07-09T16:45:59.852Z,3.00
2018-07-09T16:48:28.870Z,3.17
2018-07-09T16:50:57.263Z,3.17
2018-07-09T16:53:25.754Z,2.20
2018-07-09T16:55:53.728Z,3.67
2018-07-09T16:58:25.097Z,2.90
2018-07-09T17:00:53.415Z,3.67
2018-07-09T17:03:21.912Z,3.80
2018-07-09T17:05:49.992Z,3.00
2018-07-09T17:08:18.672Z,2.70
2018-07-09T17:10:47.418Z,2.40
2018-07-09T17:13:15.777Z,2.42
2018-07-09T17:15:44.408Z,2.60
2018-07-09T17:18:12.941Z,2.90
2018-07-09T17:20:41.537Z,4.10
2018-07-09T17:23:10.027Z,2.60
2018-07-09T17:25:38.335Z,4.30
2018-07-09T17:28:06.424Z,3.37
2018-07-09T17:30:35.125Z,3.20
2018-07-09T17:33:03.943Z,3.20
2018-07-09T17:35:32.553Z,2.83
2018-07-09T17:38:00.915Z,2.75
2018-07-09T17:40:29.789Z,5.47
2018-07-09T17:42:59.239Z,3.30
2018-07-09T17:45:28.185Z,3.33
2018-07-09T17:47:56.896Z,3.20
2018-07-09T17:50:25.395Z,3.63
2018-07-09T17:52:54.210Z,3.20
2018-07-09T17:55:22.621Z,3.00
2018-07-09T17:57:50.981Z,3.10
2018-07-09T18:00:20.546Z,3.57
2018-07-09T18:02:49.009Z,3.20
2018-07-09T18:05:17.524Z,3.30
2018-07-09T18:07:45.933Z,3.40
2018-07-09T18:10:15.468Z,3.37
2018-07-09T18:12:43.749Z,3.10
2018-07-09T18:15:12.816Z,3.80
2018-07-09T18:17:41.270Z,3.70
2018-07-09T18:20:09.949Z,4.90
2018-07-09T18:22:38.169Z,3.40
2018-07-09T18:25:07.083Z,4.45
2018-07-09T18:27:35.786Z,3.90
2018-07-09T18:30:04.324Z,3.23
2018-07-09T18:32:33.558Z,4.30
2018-07-09T18:35:02.523Z,4.83
2018-07-09T18:37:32.354Z,5.50
2018-07-09T18:40:03.010Z,4.80
2018-07-09T18:42:31.399Z,5.10
2018-07-09T18:44:59.678Z,4.85
2018-07-09T18:47:28.002Z,4.80
2018-07-09T18:49:56.592Z,5.10
2018-07-09T18:52:25.282Z,5.20
2018-07-09T18:54:53.511Z,4.70
2018-07-09T18:57:21.763Z,4.80
2018-07-09T18:59:50.092Z,4.85
2018-07-09T19:02:19.509Z,5.10
2018-07-09T19:04:50.012Z,5.22
2018-07-09T19:07:29.430Z,5.40
2018-07-09T19:09:57.905Z,5.78
2018-07-09T19:12:40.932Z,4.85
2018-07-09T19:15:09.438Z,5.30
2018-07-09T19:18:02.385Z,5.30
2018-07-09T19:20:41.937Z,5.15
2018-07-09T19:23:09.282Z,5.30
2018-07-09T19:25:37.644Z,5.20
2018-07-09T19:28:06.005Z,5.47
2018-07-09T19:30:34.013Z,4.80
2018-07-09T19:33:01.062Z,5.42
2018-07-09T19:35:28.875Z,5.20
2018-07-09T19:37:56.200Z,5.45
2018-07-09T19:40:22.852Z,5.83
2018-07-09T19:42:49.839Z,5.50
2018-07-09T19:45:17.247Z,5.60
2018-07-09T19:47:44.029Z,6.30
2018-07-09T19:50:11.475Z,5.00
2018-07-09T19:52:38.415Z,6.40
2018-07-09T19:55:05.466Z,5.87
2018-07-09T19:57:32.296Z,5.80
2018-07-09T19:59:59.230Z,6.50
2018-07-09T20:02:27.339Z,6.12
2018-07-09T20:04:54.479Z,6.67
2018-07-09T20:07:21.168Z,7.00
2018-07-09T20:09:53.773Z,6.75
2018-07-09T20:12:26.144Z,6.65
2018-07-09T20:16:02.099Z,7.33
2018-07-09T20:18:29.121Z,6.35
2018-07-09T20:20:56.057Z,6.60
2018-07-09T20:23:23.272Z,6.40
2018-07-09T20:25:50.205Z,6.67
2018-07-09T20:28:17.572Z,6.73
2018-07-09T20:30:44.510Z,9.13
2018-07-09T20:33:13.593Z,6.50
2018-07-09T20:35:40.580Z,6.70
2018-07-09T20:38:07.509Z,6.80
2018-07-09T20:40:34.790Z,6.58
2018-07-09T20:43:02.804Z,6.60
2018-07-09T20:45:29.863Z,6.90
2018-07-09T20:47:56.826Z,6.40
2018-07-09T20:50:24.836Z,6.23
2018-07-09T20:52:51.646Z,7.05
2018-07-09T20:55:18.459Z,7.20
2018-07-09T20:57:45.284Z,7.00
2018-07-09T21:00:12.056Z,6.70
2018-07-09T21:02:39.205Z,7.00
2018-07-09T21:05:07.849Z,6.15
2018-07-09T21:07:35.329Z,6.58
2018-07-09T21:10:02.485Z,7.12
2018-07-09T21:12:29.571Z,6.80
2018-07-09T21:14:56.421Z,6.75
2018-07-09T21:17:23.384Z,6.90
2018-07-09T21:19:50.786Z,6.80
2018-07-09T21:22:17.852Z,6.20
2018-07-09T21:24:45.641Z,6.37
2018-07-09T21:27:13.141Z,6.30
2018-07-09T21:29:39.986Z,6.40
2018-07-09T21:32:06.946Z,6.57
2018-07-09T21:34:34.022Z,6.97
2018-07-09T21:37:01.097Z,6.62
2018-07-09T21:39:28.222Z,6.90
2018-07-09T21:41:55.142Z,7.05
2018-07-09T21:44:22.108Z,6.65
2018-07-09T21:46:52.028Z,7.12
2018-07-09T21:49:20.634Z,6.78
2018-07-09T21:51:48.449Z,6.70
2018-07-09T21:54:15.377Z,7.15
2018-07-09T21:56:42.646Z,7.05
2018-07-09T21:59:09.609Z,7.00
2018-07-09T22:01:36.397Z,7.10
2018-07-09T22:04:03.263Z,7.40
2018-07-09T22:06:31.090Z,7.40
2018-07-09T22:08:58.004Z,7.60
2018-07-09T22:11:25.295Z,7.30
2018-07-09T22:13:52.261Z,7.47
2018-07-09T22:16:19.105Z,7.10
2018-07-09T22:18:45.960Z,8.00
2018-07-09T22:21:12.728Z,7.65
2018-07-09T22:23:39.720Z,8.20
2018-07-09T22:26:06.663Z,8.10
2018-07-09T22:28:33.545Z,7.70
2018-07-09T22:31:01.735Z,8.00
2018-07-09T22:33:30.910Z,8.10
2018-07-09T22:35:59.466Z,8.15
2018-07-09T22:38:27.973Z,8.55
2018-07-09T22:40:56.471Z,8.75
2018-07-09T22:43:36.638Z,9.45
2018-07-09T22:46:05.012Z,9.20
2018-07-09T22:48:33.533Z,8.45
2018-07-09T22:51:02.101Z,9.30
2018-07-09T22:53:30.746Z,9.65
2018-07-09T22:56:10.249Z,9.60
2018-07-09T22:58:39.677Z,9.08
2018-07-09T23:01:08.115Z,9.80
2018-07-09T23:03:36.437Z,9.65
2018-07-09T23:06:04.842Z,9.70
2018-07-09T23:08:33.447Z,10.30
2018-07-09T23:16:01.782Z,10.08
2018-07-09T23:18:41.340Z,10.20
2018-07-09T23:22:19.896Z,10.10
2018-07-09T23:24:46.771Z,9.90
2018-07-09T23:27:13.712Z,9.80
2018-07-09T23:29:40.485Z,9.70
2018-07-09T23:32:07.560Z,9.38
2018-07-09T23:34:34.849Z,9.93
2018-07-09T23:37:02.010Z,9.53
2018-07-09T23:39:29.074Z,10.43
2018-07-09T23:41:55.952Z,10.32
2018-07-09T23:44:23.112Z,10.32
2018-07-09T23:46:50.078Z,10.25
2018-07-09T23:49:17.563Z,9.80
2018-07-09T23:51:44.547Z,9.95
2018-07-09T23:54:11.701Z,10.35
2018-07-09T23:58:53.981Z,9.40
